MMQT

Details ICAO MMQT (QRO)
Name QUERETARO INTERCONTINENTAL
Region Mexico
Timezone America/Mexico_City (UTC-6.0)
Plans Departing 52
Arriving 37
Stats Elevation 6,296 ft / 1,919 m (AMSL)
Location 20.617289° -100.185657°
Runways 1
Magnetic Variation 5.075° E
Sunrise 2017-12-18 13:12:23 UTC / 2017-12-18 07:12:23 Local
Sunset 2017-12-19 00:05:17 UTC / 2017-12-18 18:05:17 Local
Advertisement - Login to hide

Runways

ID Width Length Bearing (true) Bearing (mag) Surface Threshold Offset Overrun Length
09 148 ft / 45 m 11,442 ft / 3,488 m 100.86° 95.79° Concrete 0 ft / 0 m 1,135 ft / 346 m
27 148 ft / 45 m 11,442 ft / 3,488 m 280.87° 275.80° Concrete 0 ft / 0 m 1,135 ft / 346 m

Map

Weather


0- 5 10 15 20 25 30 35+ Temperature / ° C

Clouds and Precipitation
Forecast for 2017-12-18 18:00 UTC. Updated 2 hours ago

Ground ~20,000 ft ~40,000 ft Winds

METAR

MMQT 181747Z 27004KT 5SM SCT120 BKN250 19/07 A3040 RMK 8/038 HZY

TAF

Not found

Frequencies

Tower 118.95 MHz TWR
Warning: Do not use this data for real-world aviation or navigation. No guarantee of current accuracy is given.